createdAt,value
2017-11-23T00:00:45.873Z,0.00
2017-11-23T00:01:45.856Z,0.00
2017-11-23T00:02:45.833Z,0.00
2017-11-23T00:03:45.824Z,0.00
2017-11-23T00:04:45.801Z,0.00
2017-11-23T00:05:45.785Z,0.00
2017-11-23T00:06:45.760Z,0.00
2017-11-23T00:07:45.745Z,0.00
2017-11-23T00:08:45.723Z,0.00
2017-11-23T00:09:45.709Z,0.00
2017-11-23T00:10:45.692Z,0.00
2017-11-23T00:11:45.675Z,0.00
2017-11-23T00:12:45.664Z,0.00
2017-11-23T00:13:45.631Z,0.00
2017-11-23T00:14:45.616Z,0.00
2017-11-23T00:15:45.596Z,0.00
2017-11-23T00:16:45.580Z,0.00
2017-11-23T00:17:45.563Z,0.00
2017-11-23T00:18:45.546Z,0.00
2017-11-23T00:19:45.519Z,0.00
2017-11-23T00:20:45.504Z,0.00
2017-11-23T00:21:45.485Z,0.00
2017-11-23T00:22:45.468Z,0.00
2017-11-23T00:23:45.453Z,0.00
2017-11-23T00:24:45.430Z,0.00
2017-11-23T00:25:45.415Z,0.00
2017-11-23T00:26:45.396Z,0.00
2017-11-23T00:27:45.373Z,0.00
2017-11-23T00:28:45.357Z,0.00
2017-11-23T00:29:45.334Z,0.00
2017-11-23T00:30:45.315Z,0.00
2017-11-23T00:31:45.298Z,0.00
2017-11-23T00:32:45.284Z,0.00
2017-11-23T00:33:45.264Z,0.00
2017-11-23T00:34:45.243Z,0.00
2017-11-23T00:35:45.225Z,0.00
2017-11-23T00:36:45.205Z,0.00
2017-11-23T00:37:45.192Z,0.00
2017-11-23T00:38:45.183Z,0.00
2017-11-23T00:39:45.153Z,0.00
2017-11-23T00:40:45.134Z,0.00
2017-11-23T00:41:45.115Z,0.00
2017-11-23T00:42:45.101Z,0.00
2017-11-23T00:43:45.077Z,0.00
2017-11-23T00:44:45.066Z,0.00
2017-11-23T00:45:45.060Z,0.00
2017-11-23T00:46:45.032Z,0.00
2017-11-23T00:47:45.005Z,0.00
2017-11-23T00:48:44.984Z,0.00
2017-11-23T00:49:44.971Z,0.00
2017-11-23T00:50:44.951Z,0.00
2017-11-23T00:51:44.937Z,0.00
2017-11-23T00:52:44.919Z,0.00
2017-11-23T00:53:44.897Z,0.00
2017-11-23T00:54:44.873Z,0.00
2017-11-23T00:55:44.855Z,0.00
2017-11-23T00:56:44.845Z,0.00
2017-11-23T00:57:44.826Z,0.00
2017-11-23T00:58:44.803Z,0.00
2017-11-23T00:59:44.785Z,0.00
2017-11-23T01:00:44.764Z,0.00
2017-11-23T01:01:44.751Z,0.00
2017-11-23T01:02:44.732Z,0.00
2017-11-23T01:03:44.714Z,0.00
2017-11-23T01:04:44.689Z,0.00
2017-11-23T01:05:44.675Z,0.00
2017-11-23T01:06:44.657Z,0.00
2017-11-23T01:07:44.640Z,0.00
2017-11-23T01:08:44.626Z,0.00
2017-11-23T01:09:44.602Z,0.00
2017-11-23T01:10:44.584Z,0.00
2017-11-23T01:11:44.565Z,0.00
2017-11-23T01:12:44.541Z,0.00
2017-11-23T01:13:44.524Z,0.00
2017-11-23T01:14:44.507Z,0.00
2017-11-23T01:15:44.490Z,0.00
2017-11-23T01:16:44.473Z,0.00
2017-11-23T01:17:44.456Z,0.00
2017-11-23T01:18:44.433Z,0.00
2017-11-23T01:19:44.413Z,0.00
2017-11-23T01:20:44.395Z,0.00
2017-11-23T01:21:44.378Z,0.00
2017-11-23T01:22:44.364Z,0.00
2017-11-23T01:23:44.337Z,0.00
2017-11-23T01:24:44.322Z,0.00
2017-11-23T01:25:44.304Z,0.00
2017-11-23T01:26:44.284Z,0.00
2017-11-23T01:27:44.263Z,0.00
2017-11-23T01:28:44.248Z,0.00
2017-11-23T01:29:44.227Z,0.00
2017-11-23T01:30:44.215Z,0.00
2017-11-23T01:31:44.192Z,0.00
2017-11-23T01:32:44.174Z,0.00
2017-11-23T01:33:44.155Z,0.00
2017-11-23T01:34:44.134Z,0.00
2017-11-23T01:35:44.112Z,0.00
2017-11-23T01:36:44.103Z,0.00
2017-11-23T01:37:44.079Z,0.00
2017-11-23T01:38:44.062Z,0.00
2017-11-23T01:39:44.045Z,0.00
2017-11-23T01:40:44.024Z,0.00
2017-11-23T01:41:44.003Z,0.00
2017-11-23T01:42:43.984Z,0.00
2017-11-23T01:43:43.965Z,0.00
2017-11-23T01:44:43.955Z,0.00
2017-11-23T01:45:43.933Z,0.00
2017-11-23T01:46:43.914Z,0.00
2017-11-23T01:47:43.891Z,0.00
2017-11-23T01:48:43.873Z,0.00
2017-11-23T01:49:43.868Z,0.00
2017-11-23T01:50:43.834Z,0.00
2017-11-23T01:51:43.814Z,0.00
2017-11-23T01:52:43.797Z,0.00
2017-11-23T01:53:43.802Z,0.00
2017-11-23T01:54:43.759Z,0.00
2017-11-23T01:55:43.741Z,0.00
2017-11-23T01:56:43.723Z,0.00
2017-11-23T01:57:43.711Z,0.00
2017-11-23T01:58:43.684Z,0.00
2017-11-23T01:59:43.672Z,0.00
2017-11-23T02:00:43.654Z,0.00
2017-11-23T02:01:43.626Z,0.00
2017-11-23T02:02:43.613Z,0.00
2017-11-23T02:03:43.589Z,0.00
2017-11-23T02:04:43.573Z,0.00
2017-11-23T02:05:43.556Z,0.00
2017-11-23T02:06:43.543Z,0.00
2017-11-23T02:07:43.514Z,0.00
2017-11-23T02:08:43.503Z,0.00
2017-11-23T02:09:43.478Z,0.00
2017-11-23T02:10:43.463Z,0.00
2017-11-23T02:11:43.441Z,0.00
2017-11-23T02:12:43.424Z,0.00
2017-11-23T02:13:43.404Z,0.00
2017-11-23T02:14:43.384Z,0.00
2017-11-23T02:15:43.368Z,0.00
2017-11-23T02:16:43.352Z,0.00
2017-11-23T02:17:43.331Z,0.00
2017-11-23T02:18:43.313Z,0.00
2017-11-23T02:19:43.296Z,0.00
2017-11-23T02:20:43.276Z,0.00
2017-11-23T02:21:43.260Z,0.00
2017-11-23T02:22:43.251Z,0.00
2017-11-23T02:23:43.220Z,0.00
2017-11-23T02:24:43.202Z,0.00
2017-11-23T02:25:43.185Z,0.00
2017-11-23T02:26:43.164Z,0.00
2017-11-23T02:27:43.148Z,0.00
2017-11-23T02:28:43.125Z,0.00
2017-11-23T02:29:43.115Z,0.00
2017-11-23T02:30:43.087Z,0.00
2017-11-23T02:31:43.072Z,0.00
2017-11-23T02:32:43.058Z,0.00
2017-11-23T02:33:43.034Z,0.00
2017-11-23T02:34:43.016Z,0.00
2017-11-23T02:35:42.996Z,0.00
2017-11-23T02:36:42.982Z,0.00
2017-11-23T02:37:42.960Z,0.00
2017-11-23T02:38:42.941Z,0.00
2017-11-23T02:39:42.925Z,0.00
2017-11-23T02:40:42.902Z,0.00
2017-11-23T02:41:42.885Z,0.00
2017-11-23T02:42:42.866Z,0.00
2017-11-23T02:43:42.851Z,0.00
2017-11-23T02:44:42.833Z,0.00
2017-11-23T02:45:42.810Z,0.00
2017-11-23T02:46:42.793Z,0.00
2017-11-23T02:47:42.772Z,0.00
2017-11-23T02:48:42.753Z,0.00
2017-11-23T02:49:42.738Z,0.00
2017-11-23T02:50:42.723Z,0.00
2017-11-23T02:51:42.700Z,0.00
2017-11-23T02:52:42.680Z,0.00
2017-11-23T02:53:42.666Z,0.00
2017-11-23T02:54:42.646Z,0.00
2017-11-23T02:55:42.626Z,0.00
2017-11-23T02:56:42.658Z,0.00
2017-11-23T02:57:42.589Z,0.00
2017-11-23T02:58:42.569Z,0.00
2017-11-23T02:59:42.553Z,0.00
2017-11-23T03:00:42.536Z,0.00
2017-11-23T03:01:42.516Z,0.00
2017-11-23T03:02:42.503Z,0.00
2017-11-23T03:03:42.485Z,0.00
2017-11-23T03:04:42.469Z,0.00
2017-11-23T03:05:42.444Z,0.00
2017-11-23T03:06:42.424Z,0.00
2017-11-23T03:07:42.404Z,0.00
2017-11-23T03:08:42.392Z,0.00
2017-11-23T03:09:42.384Z,0.00
2017-11-23T03:10:42.355Z,0.00
2017-11-23T03:11:42.335Z,0.00
2017-11-23T03:12:42.319Z,0.00
2017-11-23T03:13:42.295Z,0.00
2017-11-23T03:14:42.277Z,0.00
2017-11-23T03:15:42.263Z,0.00
2017-11-23T03:16:42.246Z,0.00
2017-11-23T03:17:42.234Z,0.00
2017-11-23T03:18:42.204Z,0.00
2017-11-23T03:19:42.185Z,0.00
2017-11-23T03:20:42.169Z,0.00
2017-11-23T03:21:42.149Z,0.00
2017-11-23T03:22:42.129Z,0.00
2017-11-23T03:23:42.113Z,0.00
2017-11-23T03:24:42.096Z,0.00
2017-11-23T03:25:42.076Z,0.00
2017-11-23T03:26:42.056Z,0.00
2017-11-23T03:27:42.046Z,0.00
2017-11-23T03:28:42.022Z,0.00
2017-11-23T03:29:42.002Z,0.00
2017-11-23T03:30:41.984Z,0.00
2017-11-23T03:31:41.967Z,0.00
2017-11-23T03:32:41.946Z,0.00
2017-11-23T03:33:41.943Z,0.00
2017-11-23T03:34:41.912Z,0.00
2017-11-23T03:35:41.889Z,0.00
2017-11-23T03:36:41.880Z,0.00
2017-11-23T03:37:41.856Z,0.00
2017-11-23T03:38:41.841Z,0.00
2017-11-23T03:39:41.824Z,0.00
2017-11-23T03:40:41.811Z,0.00
2017-11-23T03:41:41.780Z,0.00
2017-11-23T03:42:41.766Z,0.00
2017-11-23T03:43:41.742Z,0.00
2017-11-23T03:44:41.724Z,0.00
2017-11-23T03:45:41.712Z,0.00
2017-11-23T03:46:41.694Z,0.00
2017-11-23T03:47:41.674Z,0.00
2017-11-23T03:48:41.655Z,0.00
2017-11-23T03:49:41.636Z,0.00
2017-11-23T03:50:41.613Z,0.00
2017-11-23T03:51:41.595Z,0.00
2017-11-23T03:52:41.585Z,0.00
2017-11-23T03:53:41.570Z,0.00
2017-11-23T03:54:41.545Z,0.00
2017-11-23T03:55:41.523Z,0.00
2017-11-23T03:56:41.505Z,0.00
2017-11-23T03:57:41.494Z,0.00
2017-11-23T03:58:41.478Z,0.00
2017-11-23T03:59:41.465Z,0.00
2017-11-23T04:00:41.436Z,0.00
2017-11-23T04:01:41.415Z,0.00
2017-11-23T04:02:41.398Z,0.00
2017-11-23T04:03:41.376Z,0.00
2017-11-23T04:04:41.364Z,0.00
2017-11-23T04:05:41.354Z,0.00
2017-11-23T04:06:41.319Z,0.00
2017-11-23T04:07:41.304Z,0.00
2017-11-23T04:08:41.345Z,0.00
2017-11-23T04:09:41.265Z,0.00
2017-11-23T04:10:41.249Z,0.00
2017-11-23T04:11:41.232Z,0.00
2017-11-23T04:12:41.209Z,0.00
2017-11-23T04:13:41.193Z,0.00
2017-11-23T04:14:41.173Z,0.00
2017-11-23T04:15:41.159Z,0.00
2017-11-23T04:16:41.137Z,0.00
2017-11-23T04:17:41.133Z,0.00
2017-11-23T04:18:41.099Z,0.00
2017-11-23T04:19:41.097Z,0.00
2017-11-23T04:20:41.066Z,0.00
2017-11-23T04:21:41.055Z,0.00
2017-11-23T04:22:41.027Z,0.00
2017-11-23T04:23:41.018Z,0.00
2017-11-23T04:24:41.000Z,0.00
2017-11-23T04:25:40.973Z,0.00
2017-11-23T04:26:40.966Z,0.00
2017-11-23T04:27:40.937Z,0.00
2017-11-23T04:28:40.925Z,0.00
2017-11-23T04:29:40.905Z,0.00
2017-11-23T04:30:40.887Z,0.00
2017-11-23T04:31:40.867Z,0.00
2017-11-23T04:32:40.850Z,0.00
2017-11-23T04:33:40.832Z,0.00
2017-11-23T04:34:40.809Z,0.00
2017-11-23T04:35:40.793Z,0.00
2017-11-23T04:36:40.777Z,0.00
2017-11-23T04:37:40.760Z,0.00
2017-11-23T04:38:40.744Z,0.00
2017-11-23T04:39:40.718Z,0.00
2017-11-23T04:40:40.701Z,0.00
2017-11-23T04:41:40.686Z,0.00
2017-11-23T04:42:40.665Z,0.00
2017-11-23T04:43:40.646Z,0.00
2017-11-23T04:44:40.629Z,0.00
2017-11-23T04:45:40.634Z,0.00
2017-11-23T04:46:40.592Z,0.00
2017-11-23T04:47:40.576Z,0.00
2017-11-23T04:48:40.556Z,0.00
2017-11-23T04:49:40.548Z,0.00
2017-11-23T04:50:40.515Z,0.00
2017-11-23T04:51:40.499Z,0.00
2017-11-23T04:52:40.486Z,0.00
2017-11-23T04:53:40.464Z,0.00
2017-11-23T04:54:40.445Z,0.00
2017-11-23T04:55:40.426Z,0.00
2017-11-23T04:56:40.412Z,0.00
2017-11-23T04:57:40.396Z,0.00
2017-11-23T04:58:40.376Z,0.00
2017-11-23T04:59:40.363Z,0.00
2017-11-23T05:00:40.336Z,0.00
2017-11-23T05:01:40.321Z,0.00
2017-11-23T05:02:40.299Z,0.00
2017-11-23T05:03:40.281Z,0.00
2017-11-23T05:04:40.265Z,0.00
2017-11-23T05:05:40.267Z,0.00
2017-11-23T05:06:40.226Z,0.00
2017-11-23T05:07:40.207Z,0.00
2017-11-23T05:08:40.189Z,0.00
2017-11-23T05:09:40.172Z,0.00
2017-11-23T05:10:40.151Z,0.00
2017-11-23T05:11:40.135Z,0.00
2017-11-23T05:12:40.117Z,0.00
2017-11-23T05:13:40.095Z,0.00
2017-11-23T05:14:40.082Z,0.00
2017-11-23T05:15:40.061Z,0.00
2017-11-23T05:16:40.040Z,0.00
2017-11-23T05:17:40.023Z,0.00
2017-11-23T05:18:40.005Z,0.00
2017-11-23T05:19:39.985Z,0.00
2017-11-23T05:20:39.977Z,0.00
2017-11-23T05:21:39.951Z,0.00
2017-11-23T05:22:39.934Z,0.00
2017-11-23T05:23:39.920Z,0.00
2017-11-23T05:24:39.896Z,0.00
2017-11-23T05:25:39.884Z,0.00
2017-11-23T05:26:39.861Z,0.00
2017-11-23T05:27:39.840Z,0.00
2017-11-23T05:28:39.824Z,0.00
2017-11-23T05:29:39.804Z,0.00
2017-11-23T05:30:39.795Z,0.00
2017-11-23T05:31:39.768Z,0.00
2017-11-23T05:32:39.755Z,0.00
2017-11-23T05:33:39.746Z,0.00
2017-11-23T05:34:39.716Z,0.00
2017-11-23T05:35:39.700Z,0.00
2017-11-23T05:36:39.679Z,0.00
2017-11-23T05:37:39.674Z,0.00
2017-11-23T05:38:39.643Z,0.00
2017-11-23T05:39:39.625Z,0.00
2017-11-23T05:40:39.613Z,0.00
2017-11-23T05:41:39.594Z,0.00
2017-11-23T05:42:39.575Z,0.00
2017-11-23T05:43:39.565Z,0.00
2017-11-23T05:44:39.534Z,0.00
2017-11-23T05:45:39.521Z,0.00
2017-11-23T05:46:39.497Z,0.00
2017-11-23T05:47:39.561Z,0.00
2017-11-23T05:48:39.466Z,0.00
2017-11-23T05:49:39.460Z,0.00
2017-11-23T05:50:39.425Z,0.00
2017-11-23T05:51:39.460Z,0.00
2017-11-23T05:52:39.393Z,0.00
2017-11-23T05:53:39.376Z,0.00
2017-11-23T05:54:39.354Z,0.00
2017-11-23T05:55:39.335Z,0.00
2017-11-23T05:56:39.322Z,0.00
2017-11-23T05:57:39.304Z,0.00
2017-11-23T05:58:39.287Z,0.00
2017-11-23T05:59:39.265Z,0.00
2017-11-23T06:00:39.274Z,0.00
2017-11-23T06:01:39.303Z,0.00
2017-11-23T06:02:39.211Z,0.00
2017-11-23T06:03:39.195Z,0.00
2017-11-23T06:04:39.175Z,0.00
2017-11-23T06:05:39.163Z,0.00
2017-11-23T06:06:39.139Z,0.00
2017-11-23T06:07:39.124Z,0.00
2017-11-23T06:08:39.105Z,0.00
2017-11-23T06:09:39.093Z,0.00
2017-11-23T06:10:39.071Z,0.00
2017-11-23T06:11:39.053Z,0.00
2017-11-23T06:12:39.032Z,0.00
2017-11-23T06:13:39.021Z,0.00
2017-11-23T06:14:38.994Z,0.00
2017-11-23T06:15:38.986Z,0.00
2017-11-23T06:16:38.960Z,0.00
2017-11-23T06:17:39.036Z,0.00
2017-11-23T06:18:38.923Z,0.00
2017-11-23T06:19:38.913Z,0.00
2017-11-23T06:20:38.894Z,0.00
2017-11-23T06:21:38.876Z,0.00
2017-11-23T06:22:38.864Z,0.00
2017-11-23T06:23:38.840Z,0.00
2017-11-23T06:24:38.817Z,0.00
2017-11-23T06:25:38.801Z,0.00
2017-11-23T06:26:38.784Z,0.00
2017-11-23T06:27:38.765Z,0.00
2017-11-23T06:28:38.746Z,0.00
2017-11-23T06:29:38.731Z,0.00
2017-11-23T06:30:38.716Z,0.00
2017-11-23T06:31:38.691Z,0.00
2017-11-23T06:32:38.673Z,0.00
2017-11-23T06:33:38.659Z,0.00
2017-11-23T06:34:38.638Z,0.00
2017-11-23T06:35:38.624Z,0.00
2017-11-23T06:36:38.608Z,0.00
2017-11-23T06:37:38.584Z,0.00
2017-11-23T06:38:38.574Z,0.00
2017-11-23T06:39:38.549Z,0.00
2017-11-23T06:40:38.533Z,0.00
2017-11-23T06:41:38.515Z,0.00
2017-11-23T06:42:38.496Z,0.00
2017-11-23T06:43:38.479Z,0.00
2017-11-23T06:44:38.466Z,0.00
2017-11-23T06:45:38.445Z,0.00
2017-11-23T06:46:38.425Z,0.00
2017-11-23T06:47:38.414Z,0.00
2017-11-23T06:48:38.396Z,0.00
2017-11-23T06:49:38.378Z,0.00
2017-11-23T06:50:38.359Z,0.00
2017-11-23T06:51:38.348Z,0.00
2017-11-23T06:52:38.323Z,0.00
2017-11-23T06:53:38.309Z,0.00
2017-11-23T06:54:38.284Z,0.00
2017-11-23T06:55:38.269Z,0.00
2017-11-23T06:56:38.253Z,0.00
2017-11-23T06:57:38.234Z,0.00
2017-11-23T06:58:38.223Z,0.00
2017-11-23T06:59:38.196Z,0.00
2017-11-23T07:00:38.182Z,0.00
2017-11-23T07:01:38.167Z,0.00
2017-11-23T07:02:38.147Z,0.00
2017-11-23T07:03:38.134Z,0.00
2017-11-23T07:04:38.107Z,0.00
2017-11-23T07:05:38.094Z,0.00
2017-11-23T07:06:38.093Z,0.00
2017-11-23T07:07:38.053Z,0.00
2017-11-23T07:08:38.038Z,0.00
2017-11-23T07:09:38.022Z,0.00
2017-11-23T07:10:38.005Z,0.00
2017-11-23T07:11:37.982Z,0.00
2017-11-23T07:12:37.967Z,0.00
2017-11-23T07:13:37.948Z,0.00
2017-11-23T07:14:37.934Z,0.00
2017-11-23T07:15:37.915Z,0.00
2017-11-23T07:16:37.896Z,0.00
2017-11-23T07:17:37.883Z,0.00
2017-11-23T07:18:37.865Z,0.00
2017-11-23T07:19:37.901Z,0.00
2017-11-23T07:20:37.826Z,0.00
2017-11-23T07:21:37.865Z,0.00
2017-11-23T07:22:37.796Z,0.00
2017-11-23T07:23:37.827Z,0.00
2017-11-23T07:24:37.759Z,0.00
2017-11-23T07:25:37.744Z,0.00
2017-11-23T07:26:37.724Z,0.00
2017-11-23T07:27:37.729Z,0.00
2017-11-23T07:28:37.685Z,5.63
2017-11-23T07:29:37.725Z,5.63
2017-11-23T07:30:37.658Z,5.63
2017-11-23T07:31:37.635Z,5.63
2017-11-23T07:32:37.623Z,5.63
2017-11-23T07:33:37.627Z,5.63
2017-11-23T07:34:37.581Z,5.63
2017-11-23T07:35:37.571Z,5.63
2017-11-23T07:36:37.555Z,5.63
2017-11-23T07:37:37.579Z,5.63
2017-11-23T07:38:37.514Z,5.63
2017-11-23T07:39:37.502Z,5.63
2017-11-23T07:40:37.476Z,5.63
2017-11-23T07:41:37.472Z,5.63
2017-11-23T07:42:37.445Z,5.63
2017-11-23T07:43:37.435Z,11.25
2017-11-23T07:44:37.408Z,11.25
2017-11-23T07:45:37.395Z,11.25
2017-11-23T07:46:37.374Z,16.88
2017-11-23T07:47:37.409Z,16.88
2017-11-23T07:48:37.343Z,22.50
2017-11-23T07:49:37.323Z,28.13
2017-11-23T07:50:37.307Z,33.75
2017-11-23T07:51:37.290Z,33.75
2017-11-23T07:52:37.281Z,33.75
2017-11-23T07:53:37.296Z,28.13
2017-11-23T07:54:37.235Z,28.13
2017-11-23T07:55:37.226Z,28.13
2017-11-23T07:56:37.208Z,28.13
2017-11-23T07:57:37.239Z,33.75
2017-11-23T07:58:37.176Z,33.75
2017-11-23T07:59:37.154Z,39.38
2017-11-23T08:00:37.131Z,45.00
2017-11-23T08:01:37.114Z,45.00
2017-11-23T08:02:37.100Z,45.00
2017-11-23T08:03:37.079Z,45.00
2017-11-23T08:04:37.063Z,45.00
2017-11-23T08:05:37.045Z,45.00
2017-11-23T08:06:37.036Z,45.00
2017-11-23T08:07:37.016Z,45.00
2017-11-23T08:08:36.995Z,50.63
2017-11-23T08:09:36.984Z,61.88
2017-11-23T08:10:36.967Z,67.50
2017-11-23T08:11:36.946Z,73.13
2017-11-23T08:12:36.934Z,73.13
2017-11-23T08:13:36.914Z,73.13
2017-11-23T08:14:36.897Z,73.13
2017-11-23T08:15:36.874Z,73.13
2017-11-23T08:16:36.865Z,78.75
2017-11-23T08:17:36.846Z,270.00
2017-11-23T08:18:36.824Z,180.00
2017-11-23T08:19:36.808Z,225.00
2017-11-23T08:20:36.795Z,303.75
2017-11-23T08:21:36.782Z,191.25
2017-11-23T08:22:36.765Z,213.75
2017-11-23T08:23:36.744Z,286.88
2017-11-23T08:24:36.735Z,466.88
2017-11-23T08:25:36.718Z,450.00
2017-11-23T08:26:36.705Z,433.13
2017-11-23T08:27:36.686Z,241.88
2017-11-23T08:28:36.674Z,213.75
2017-11-23T08:29:36.676Z,292.50
2017-11-23T08:30:36.651Z,219.38
2017-11-23T08:31:36.635Z,196.88
2017-11-23T08:32:36.625Z,84.38
2017-11-23T08:33:36.604Z,90.00
2017-11-23T08:34:36.591Z,95.63
2017-11-23T08:35:36.575Z,106.88
2017-11-23T08:36:36.573Z,140.63
2017-11-23T08:37:36.555Z,421.88
2017-11-23T08:38:36.539Z,123.75
2017-11-23T08:39:36.527Z,151.88
2017-11-23T08:40:36.508Z,123.75
2017-11-23T08:41:36.544Z,180.00
2017-11-23T08:42:36.476Z,135.00
2017-11-23T08:43:36.472Z,478.13
2017-11-23T08:44:36.457Z,1057.50
2017-11-23T08:45:36.435Z,838.13
2017-11-23T08:46:36.435Z,146.25
2017-11-23T08:47:36.418Z,101.25
2017-11-23T08:48:36.402Z,90.00
2017-11-23T08:49:36.387Z,95.63
2017-11-23T08:50:36.371Z,101.25
2017-11-23T08:51:36.361Z,123.75
2017-11-23T08:52:36.344Z,101.25
2017-11-23T08:53:36.331Z,101.25
2017-11-23T08:54:36.355Z,106.88
2017-11-23T08:55:36.309Z,371.25
2017-11-23T08:56:36.290Z,388.13
2017-11-23T08:57:36.281Z,376.88
2017-11-23T08:58:36.265Z,382.50
2017-11-23T08:59:36.267Z,399.38
2017-11-23T09:00:36.250Z,410.63
2017-11-23T09:01:36.234Z,427.50
2017-11-23T09:02:36.224Z,450.00
2017-11-23T09:03:36.213Z,343.13
2017-11-23T09:04:36.202Z,517.50
2017-11-23T09:05:36.193Z,461.25
2017-11-23T09:06:36.182Z,579.38
2017-11-23T09:07:36.170Z,326.25
2017-11-23T09:08:36.161Z,736.88
2017-11-23T09:09:36.150Z,225.00
2017-11-23T09:10:36.144Z,281.25
2017-11-23T09:11:36.133Z,281.25
2017-11-23T09:12:36.122Z,140.63
2017-11-23T09:13:36.119Z,174.38
2017-11-23T09:14:36.110Z,551.25
2017-11-23T09:15:36.099Z,292.50
2017-11-23T09:16:36.086Z,146.25
2017-11-23T09:17:36.082Z,101.25
2017-11-23T09:18:36.064Z,84.38
2017-11-23T09:19:36.055Z,90.00
2017-11-23T09:20:36.045Z,67.50
2017-11-23T09:21:36.031Z,61.88
2017-11-23T09:22:36.023Z,50.63
2017-11-23T09:23:36.015Z,56.25
2017-11-23T09:24:36.055Z,50.63
2017-11-23T09:25:35.987Z,45.00
2017-11-23T09:26:35.972Z,33.75
2017-11-23T09:27:35.969Z,33.75
2017-11-23T09:28:35.948Z,39.38
2017-11-23T09:29:35.955Z,39.38
2017-11-23T09:30:35.968Z,39.38
2017-11-23T09:31:35.904Z,33.75
2017-11-23T09:32:35.905Z,28.13
2017-11-23T09:33:35.874Z,28.13
2017-11-23T09:34:35.867Z,22.50
2017-11-23T09:35:35.855Z,22.50
2017-11-23T09:36:35.833Z,16.88
2017-11-23T09:37:35.827Z,16.88
2017-11-23T09:38:35.809Z,16.88
2017-11-23T09:39:35.799Z,16.88
2017-11-23T09:40:35.775Z,16.88
2017-11-23T09:41:35.764Z,16.88
2017-11-23T09:42:35.744Z,16.88
2017-11-23T09:43:35.729Z,16.88
2017-11-23T09:44:35.712Z,16.88
2017-11-23T09:45:35.706Z,16.88
2017-11-23T09:46:35.678Z,11.25
2017-11-23T09:47:35.665Z,11.25
2017-11-23T09:48:35.657Z,16.88
2017-11-23T09:49:35.636Z,22.50
2017-11-23T09:50:35.624Z,22.50
2017-11-23T09:51:35.603Z,16.88
2017-11-23T09:52:35.591Z,22.50
2017-11-23T09:53:35.569Z,22.50
2017-11-23T09:54:35.559Z,16.88
2017-11-23T09:55:35.541Z,16.88
2017-11-23T09:56:35.523Z,16.88
2017-11-23T09:57:35.523Z,16.88
2017-11-23T09:58:35.495Z,16.88
2017-11-23T09:59:35.485Z,16.88
2017-11-23T10:00:35.465Z,16.88
2017-11-23T10:01:35.449Z,16.88
2017-11-23T10:02:35.430Z,16.88
2017-11-23T10:03:35.416Z,16.88
2017-11-23T10:04:35.403Z,16.88
2017-11-23T10:05:35.385Z,16.88
2017-11-23T10:06:35.373Z,22.50
2017-11-23T10:07:35.355Z,22.50
2017-11-23T10:08:35.335Z,16.88
2017-11-23T10:09:35.323Z,16.88
2017-11-23T10:10:35.300Z,16.88
2017-11-23T10:11:35.284Z,16.88
2017-11-23T10:12:35.275Z,16.88
2017-11-23T10:13:35.257Z,16.88
2017-11-23T10:14:35.236Z,16.88
2017-11-23T10:15:35.225Z,16.88
2017-11-23T10:16:35.218Z,16.88
2017-11-23T10:17:35.189Z,16.88
2017-11-23T10:18:35.175Z,16.88
2017-11-23T10:19:35.157Z,16.88
2017-11-23T10:20:35.142Z,16.88
2017-11-23T10:21:35.137Z,11.25
2017-11-23T10:22:35.117Z,11.25
2017-11-23T10:23:35.105Z,11.25
2017-11-23T10:24:35.084Z,11.25
2017-11-23T10:25:35.061Z,11.25
2017-11-23T10:26:35.046Z,16.88
2017-11-23T10:27:35.064Z,16.88
2017-11-23T10:28:35.017Z,11.25
2017-11-23T10:29:34.998Z,11.25
2017-11-23T10:30:34.986Z,11.25
2017-11-23T10:31:34.966Z,16.88
2017-11-23T10:32:34.964Z,16.88
2017-11-23T10:33:34.944Z,11.25
2017-11-23T10:34:34.941Z,11.25
2017-11-23T10:35:34.901Z,16.88
2017-11-23T10:36:34.886Z,11.25
2017-11-23T10:37:34.867Z,16.88
2017-11-23T10:38:34.859Z,16.88
2017-11-23T10:39:34.837Z,16.88
2017-11-23T10:40:34.831Z,16.88
2017-11-23T10:41:34.804Z,16.88
2017-11-23T10:42:34.798Z,16.88
2017-11-23T10:43:34.777Z,16.88
2017-11-23T10:44:34.757Z,16.88
2017-11-23T10:45:34.743Z,16.88
2017-11-23T10:46:34.724Z,16.88
2017-11-23T10:47:34.715Z,16.88
2017-11-23T10:48:34.694Z,16.88
2017-11-23T10:49:34.676Z,22.50
2017-11-23T10:50:34.666Z,28.13
2017-11-23T10:51:34.645Z,28.13
2017-11-23T10:52:34.651Z,39.38
2017-11-23T10:53:34.615Z,45.00
2017-11-23T10:54:34.596Z,39.38
2017-11-23T10:55:34.579Z,39.38
2017-11-23T10:56:34.567Z,39.38
2017-11-23T10:57:34.547Z,39.38
2017-11-23T10:58:34.534Z,56.25
2017-11-23T10:59:34.519Z,67.50
2017-11-23T11:00:34.510Z,67.50
2017-11-23T11:01:34.484Z,61.88
2017-11-23T11:02:34.465Z,56.25
2017-11-23T11:03:34.454Z,61.88
2017-11-23T11:04:34.440Z,67.50
2017-11-23T11:05:34.424Z,61.88
2017-11-23T11:06:34.409Z,56.25
2017-11-23T11:07:34.398Z,50.63
2017-11-23T11:08:34.377Z,45.00
2017-11-23T11:09:34.358Z,45.00
2017-11-23T11:10:34.345Z,45.00
2017-11-23T11:11:34.328Z,45.00
2017-11-23T11:12:34.314Z,39.38
2017-11-23T11:13:34.294Z,39.38
2017-11-23T11:14:34.289Z,39.38
2017-11-23T11:15:34.265Z,33.75
2017-11-23T11:16:34.248Z,28.13
2017-11-23T11:17:34.237Z,28.13
2017-11-23T11:18:34.215Z,28.13
2017-11-23T11:19:34.201Z,28.13
2017-11-23T11:20:34.186Z,28.13
2017-11-23T11:21:34.171Z,22.50
2017-11-23T11:22:34.164Z,22.50
2017-11-23T11:23:34.134Z,16.88
2017-11-23T11:24:34.123Z,16.88
2017-11-23T11:25:34.104Z,16.88
2017-11-23T11:26:34.084Z,16.88
2017-11-23T11:27:34.074Z,22.50
2017-11-23T11:28:34.054Z,22.50
2017-11-23T11:29:34.147Z,22.50
2017-11-23T11:30:34.019Z,16.88
2017-11-23T11:31:34.028Z,16.88
2017-11-23T11:32:33.988Z,11.25
2017-11-23T11:33:33.986Z,16.88
2017-11-23T11:34:33.957Z,16.88
2017-11-23T11:35:34.038Z,22.50
2017-11-23T11:36:33.924Z,22.50
2017-11-23T11:37:33.957Z,22.50
2017-11-23T11:38:33.893Z,22.50
2017-11-23T11:39:33.924Z,22.50
2017-11-23T11:40:33.861Z,22.50
2017-11-23T11:41:33.896Z,22.50
2017-11-23T11:42:33.825Z,22.50
2017-11-23T11:43:33.857Z,22.50
2017-11-23T11:44:33.793Z,22.50
2017-11-23T11:45:33.827Z,16.88
2017-11-23T11:46:33.758Z,22.50
2017-11-23T11:47:33.741Z,22.50
2017-11-23T11:48:33.730Z,33.75
2017-11-23T11:49:33.713Z,39.38
2017-11-23T11:50:33.693Z,39.38
2017-11-23T11:51:33.733Z,39.38
2017-11-23T11:52:33.676Z,39.38
2017-11-23T11:53:33.696Z,33.75
2017-11-23T11:54:33.648Z,28.13
2017-11-23T11:55:33.611Z,28.13
2017-11-23T11:56:33.600Z,33.75
2017-11-23T11:57:33.636Z,33.75
2017-11-23T11:58:33.569Z,28.13
2017-11-23T11:59:33.550Z,28.13
2017-11-23T12:00:33.533Z,22.50
2017-11-23T12:01:33.514Z,22.50
2017-11-23T12:02:33.509Z,22.50
2017-11-23T12:03:33.489Z,22.50
2017-11-23T12:04:33.467Z,28.13
2017-11-23T12:05:33.456Z,33.75
2017-11-23T12:06:33.446Z,39.38
2017-11-23T12:07:33.414Z,50.63
2017-11-23T12:08:33.398Z,112.50
2017-11-23T12:09:33.386Z,174.38
2017-11-23T12:10:33.365Z,174.38
2017-11-23T12:11:33.352Z,140.63
2017-11-23T12:12:33.335Z,236.25
2017-11-23T12:13:33.317Z,208.13
2017-11-23T12:14:33.307Z,236.25
2017-11-23T12:15:33.289Z,241.88
2017-11-23T12:16:33.272Z,241.88
2017-11-23T12:17:33.257Z,247.50
2017-11-23T12:18:33.248Z,236.25
2017-11-23T12:19:33.240Z,230.63
2017-11-23T12:20:33.223Z,225.00
2017-11-23T12:21:33.203Z,225.00
2017-11-23T12:22:33.194Z,219.38
2017-11-23T12:23:33.178Z,174.38
2017-11-23T12:24:33.167Z,230.63
2017-11-23T12:25:33.157Z,163.13
2017-11-23T12:26:33.139Z,129.38
2017-11-23T12:27:33.127Z,90.00
2017-11-23T12:28:33.116Z,73.13
2017-11-23T12:29:33.105Z,56.25
2017-11-23T12:30:33.085Z,56.25
2017-11-23T12:31:33.106Z,45.00
2017-11-23T12:32:33.062Z,39.38
2017-11-23T12:33:33.048Z,33.75
2017-11-23T12:34:33.038Z,22.50
2017-11-23T12:35:33.020Z,22.50
2017-11-23T12:36:33.007Z,22.50
2017-11-23T12:37:32.998Z,22.50
2017-11-23T12:38:32.988Z,22.50
2017-11-23T12:39:32.968Z,16.88
2017-11-23T12:40:32.954Z,16.88
2017-11-23T12:41:32.937Z,22.50
2017-11-23T12:42:32.947Z,33.75
2017-11-23T12:43:32.921Z,33.75
2017-11-23T12:44:32.896Z,39.38
2017-11-23T12:45:32.882Z,39.38
2017-11-23T12:46:32.868Z,39.38
2017-11-23T12:47:32.852Z,45.00
2017-11-23T12:48:32.837Z,39.38
2017-11-23T12:49:32.824Z,39.38
2017-11-23T12:50:32.808Z,45.00
2017-11-23T12:51:32.794Z,56.25
2017-11-23T12:52:32.783Z,67.50
2017-11-23T12:53:32.763Z,56.25
2017-11-23T12:54:32.754Z,45.00
2017-11-23T12:55:32.734Z,45.00
2017-11-23T12:56:32.719Z,45.00
2017-11-23T12:57:32.703Z,39.38
2017-11-23T12:58:32.696Z,39.38
2017-11-23T12:59:32.675Z,33.75
2017-11-23T13:00:32.659Z,39.38
2017-11-23T13:01:32.654Z,39.38
2017-11-23T13:02:32.636Z,33.75
2017-11-23T13:03:32.616Z,33.75
2017-11-23T13:04:32.603Z,33.75
2017-11-23T13:05:32.588Z,33.75